Rawsonville, Michigan
Current Conditions -  °F | °C
As of 3:53 PM on Thursday 23 Oct 2014 (Local Time) from KYIP Reporting Station
Clear Clear  
Wind Chill: 62°   Ceiling: Unl
Heat Index: 62°   Visibility: 10mi
Dew Point: 38°   Wind: 6mph
Humidity: 41%   Direction: NA
Pressure: 30.15"   Gusts: NA
Location:  42.1967°N, 83.6251°W
Report Text: KYIP 231953Z AUTO VRB05KT 10SM CLR 17/03 A3015 RMK AO2 SLP209 T01670033 TSNO
Loading
Personal Weather Stations






























Interactive Weather Map
Tropical Storm Tracking
New forecast layout! Learn more

10-Day Weather Forecast

Advertisements
Track Severe Weather on mobile